createdAt,value
2019-05-16T00:00:05.376Z,980.68
2019-05-16T00:01:09.856Z,980.68
2019-05-16T00:02:04.655Z,980.70
2019-05-16T00:03:05.425Z,980.62
2019-05-16T00:04:05.163Z,980.70
2019-05-16T00:05:05.214Z,980.62
2019-05-16T00:06:04.967Z,980.62
2019-05-16T00:07:05.363Z,980.71
2019-05-16T00:08:05.479Z,980.65
2019-05-16T00:09:04.626Z,980.71
2019-05-16T00:10:04.776Z,980.76
2019-05-16T00:11:04.897Z,980.62
2019-05-16T00:12:04.997Z,980.76
2019-05-16T00:13:05.037Z,980.56
2019-05-16T00:14:04.563Z,980.48
2019-05-16T00:15:04.508Z,980.51
2019-05-16T00:16:05.137Z,980.48
2019-05-16T00:17:04.616Z,980.48
2019-05-16T00:18:04.774Z,980.42
2019-05-16T00:19:04.825Z,980.56
2019-05-16T00:20:05.105Z,980.51
2019-05-16T00:21:10.205Z,980.51
2019-05-16T00:22:04.689Z,980.45
2019-05-16T00:23:04.590Z,980.48
2019-05-16T00:24:04.833Z,980.51
2019-05-16T00:25:04.788Z,980.48
2019-05-16T00:26:04.515Z,980.51
2019-05-16T00:27:04.516Z,980.51
2019-05-16T00:28:04.592Z,980.48
2019-05-16T00:29:04.715Z,980.45
2019-05-16T00:30:04.524Z,980.39
2019-05-16T00:31:04.864Z,980.42
2019-05-16T00:32:05.124Z,980.39
2019-05-16T00:33:07.790Z,980.34
2019-05-16T00:34:04.518Z,980.37
2019-05-16T00:35:04.893Z,980.28
2019-05-16T00:36:09.051Z,980.31
2019-05-16T00:37:04.653Z,980.34
2019-05-16T00:38:04.877Z,980.31
2019-05-16T00:39:05.058Z,980.28
2019-05-16T00:40:05.280Z,980.40
2019-05-16T00:41:05.286Z,980.23
2019-05-16T00:42:05.272Z,980.31
2019-05-16T00:43:07.863Z,980.37
2019-05-16T00:44:10.004Z,980.25
2019-05-16T00:45:05.455Z,980.23
2019-05-16T00:46:04.489Z,980.25
2019-05-16T00:47:04.573Z,980.12
2019-05-16T00:48:04.845Z,980.15
2019-05-16T00:49:04.858Z,980.31
2019-05-16T00:50:05.091Z,980.06
2019-05-16T00:51:08.066Z,980.25
2019-05-16T00:52:04.775Z,980.18
2019-05-16T00:53:04.909Z,980.26
2019-05-16T00:54:05.064Z,980.12
2019-05-16T00:55:05.084Z,980.25
2019-05-16T00:56:05.247Z,980.15
2019-05-16T00:57:04.815Z,980.25
2019-05-16T00:58:04.811Z,980.18
2019-05-16T00:59:04.850Z,980.26
2019-05-16T01:00:04.870Z,980.18
2019-05-16T01:01:05.061Z,980.07
2019-05-16T01:02:05.048Z,980.07
2019-05-16T01:03:04.779Z,980.09
2019-05-16T01:04:04.886Z,980.04
2019-05-16T01:05:04.609Z,979.95
2019-05-16T01:06:21.875Z,980.15
2019-05-16T01:07:04.601Z,980.04
2019-05-16T01:08:04.665Z,979.98
2019-05-16T01:09:04.920Z,980.04
2019-05-16T01:10:04.988Z,980.07
2019-05-16T01:11:07.442Z,979.98
2019-05-16T01:12:04.881Z,979.93
2019-05-16T01:13:05.087Z,979.93
2019-05-16T01:14:04.614Z,980.04
2019-05-16T01:15:04.688Z,979.85
2019-05-16T01:16:08.384Z,979.90
2019-05-16T01:17:04.692Z,979.85
2019-05-16T01:18:04.715Z,979.85
2019-05-16T01:19:04.597Z,979.79
2019-05-16T01:20:05.348Z,979.82
2019-05-16T01:21:05.147Z,979.82
2019-05-16T01:22:04.507Z,979.71
2019-05-16T01:23:06.142Z,979.85
2019-05-16T01:24:04.764Z,979.71
2019-05-16T01:25:04.751Z,979.77
2019-05-16T01:26:04.916Z,979.80
2019-05-16T01:27:04.490Z,979.74
2019-05-16T01:28:04.528Z,979.85
2019-05-16T01:29:04.825Z,979.80
2019-05-16T01:30:05.040Z,979.80
2019-05-16T01:31:04.657Z,979.77
2019-05-16T01:32:04.733Z,979.66
2019-05-16T01:33:05.236Z,979.63
2019-05-16T01:34:04.726Z,979.71
2019-05-16T01:35:05.308Z,979.68
2019-05-16T01:36:04.910Z,979.60
2019-05-16T01:37:04.904Z,979.74
2019-05-16T01:38:05.231Z,979.63
2019-05-16T01:39:04.521Z,979.71
2019-05-16T01:40:04.638Z,979.74
2019-05-16T01:41:04.916Z,979.68
2019-05-16T01:42:04.602Z,979.65
2019-05-16T01:43:04.890Z,979.65
2019-05-16T01:44:09.494Z,979.57
2019-05-16T01:45:04.880Z,979.60
2019-05-16T01:46:05.004Z,979.71
2019-05-16T01:47:04.922Z,979.57
2019-05-16T01:48:05.088Z,979.54
2019-05-16T01:49:05.327Z,979.48
2019-05-16T01:50:05.192Z,979.57
2019-05-16T01:51:04.490Z,979.43
2019-05-16T01:52:04.579Z,979.37
2019-05-16T01:53:04.684Z,979.40
2019-05-16T01:54:04.780Z,979.51
2019-05-16T01:55:04.587Z,979.57
2019-05-16T01:56:05.382Z,979.37
2019-05-16T01:57:05.550Z,979.46
2019-05-16T01:58:04.868Z,979.46
2019-05-16T01:59:05.033Z,979.52
2019-05-16T02:00:05.245Z,979.40
2019-05-16T02:01:15.675Z,979.37
2019-05-16T02:02:05.398Z,979.37
2019-05-16T02:03:04.985Z,979.35
2019-05-16T02:04:05.224Z,979.32
2019-05-16T02:05:05.377Z,979.38
2019-05-16T02:06:04.792Z,979.40
2019-05-16T02:07:04.648Z,979.40
2019-05-16T02:08:04.663Z,979.40
2019-05-16T02:09:04.812Z,979.29
2019-05-16T02:10:04.856Z,979.38
2019-05-16T02:11:04.899Z,979.40
2019-05-16T02:12:08.091Z,979.41
2019-05-16T02:13:04.883Z,979.35
2019-05-16T02:14:04.923Z,979.32
2019-05-16T02:15:04.634Z,979.43
2019-05-16T02:16:04.767Z,979.49
2019-05-16T02:17:04.826Z,979.38
2019-05-16T02:18:10.396Z,979.43
2019-05-16T02:19:04.881Z,979.52
2019-05-16T02:20:04.938Z,979.32
2019-05-16T02:21:05.166Z,979.43
2019-05-16T02:22:04.842Z,979.24
2019-05-16T02:23:04.823Z,979.29
2019-05-16T02:24:04.940Z,979.21
2019-05-16T02:25:04.825Z,979.15
2019-05-16T02:26:07.455Z,979.29
2019-05-16T02:27:04.897Z,979.24
2019-05-16T02:28:04.457Z,979.29
2019-05-16T02:29:05.360Z,979.24
2019-05-16T02:30:05.419Z,979.32
2019-05-16T02:31:05.425Z,979.18
2019-05-16T02:32:05.544Z,979.21
2019-05-16T02:33:04.944Z,979.15
2019-05-16T02:34:05.313Z,979.21
2019-05-16T02:35:05.352Z,979.18
2019-05-16T02:36:05.459Z,979.21
2019-05-16T02:37:28.929Z,979.18
2019-05-16T02:38:04.837Z,979.04
2019-05-16T02:39:06.081Z,979.24
2019-05-16T02:40:05.227Z,979.12
2019-05-16T02:41:05.313Z,979.24
2019-05-16T02:42:05.459Z,979.12
2019-05-16T02:43:04.517Z,979.15
2019-05-16T02:44:04.906Z,979.10
2019-05-16T02:45:04.703Z,979.12
2019-05-16T02:46:04.811Z,979.04
2019-05-16T02:47:05.267Z,979.21
2019-05-16T02:48:05.479Z,978.98
2019-05-16T02:49:04.945Z,979.04
2019-05-16T02:50:05.142Z,979.13
2019-05-16T02:51:05.509Z,979.04
2019-05-16T02:52:11.313Z,979.04
2019-05-16T02:53:04.688Z,978.96
2019-05-16T02:54:05.101Z,978.93
2019-05-16T02:55:05.220Z,978.87
2019-05-16T02:56:04.998Z,979.10
2019-05-16T02:57:05.210Z,979.01
2019-05-16T02:58:05.395Z,979.04
2019-05-16T02:59:05.298Z,978.96
2019-05-16T03:00:05.293Z,978.93
2019-05-16T03:01:04.671Z,978.90
2019-05-16T03:02:04.887Z,978.93
2019-05-16T03:03:05.061Z,978.90
2019-05-16T03:04:05.388Z,978.96
2019-05-16T03:05:04.532Z,978.96
2019-05-16T03:06:04.746Z,979.01
2019-05-16T03:07:04.502Z,978.90
2019-05-16T03:08:05.141Z,978.82
2019-05-16T03:09:05.869Z,979.01
2019-05-16T03:10:04.501Z,978.96
2019-05-16T03:11:05.435Z,978.82
2019-05-16T03:12:04.772Z,978.96
2019-05-16T03:13:04.879Z,978.96
2019-05-16T03:14:05.442Z,978.76
2019-05-16T03:15:04.629Z,978.87
2019-05-16T03:16:04.868Z,978.93
2019-05-16T03:17:04.971Z,978.73
2019-05-16T03:18:05.377Z,978.82
2019-05-16T03:19:05.415Z,978.90
2019-05-16T03:20:05.497Z,978.73
2019-05-16T03:21:04.692Z,978.76
2019-05-16T03:22:05.274Z,978.85
2019-05-16T03:23:05.297Z,978.73
2019-05-16T03:24:05.194Z,978.79
2019-05-16T03:25:05.015Z,978.76
2019-05-16T03:26:05.212Z,978.68
2019-05-16T03:27:05.315Z,978.73
2019-05-16T03:28:04.652Z,978.68
2019-05-16T03:29:04.753Z,978.68
2019-05-16T03:30:05.234Z,978.59
2019-05-16T03:31:06.702Z,978.76
2019-05-16T03:32:05.494Z,978.85
2019-05-16T03:33:06.203Z,978.71
2019-05-16T03:34:09.476Z,978.62
2019-05-16T03:35:06.365Z,978.82
2019-05-16T03:36:05.823Z,978.73
2019-05-16T03:37:05.646Z,978.73
2019-05-16T03:38:06.343Z,978.73
2019-05-16T03:39:05.241Z,978.73
2019-05-16T03:40:04.561Z,978.71
2019-05-16T03:41:04.797Z,978.82
2019-05-16T03:42:04.900Z,978.73
2019-05-16T03:43:05.404Z,978.71
2019-05-16T03:44:05.388Z,978.62
2019-05-16T03:45:04.515Z,978.48
2019-05-16T03:46:04.660Z,978.51
2019-05-16T03:47:04.965Z,978.48
2019-05-16T03:48:05.178Z,978.54
2019-05-16T03:49:05.484Z,978.71
2019-05-16T03:50:05.973Z,978.59
2019-05-16T03:51:04.845Z,978.56
2019-05-16T03:52:05.436Z,978.59
2019-05-16T03:53:05.294Z,978.65
2019-05-16T03:54:04.610Z,978.56
2019-05-16T03:55:05.234Z,978.48
2019-05-16T03:56:05.295Z,978.45
2019-05-16T03:57:04.557Z,978.43
2019-05-16T03:58:04.726Z,978.45
2019-05-16T03:59:04.830Z,978.45
2019-05-16T04:00:12.505Z,978.35
2019-05-16T04:01:04.852Z,978.48
2019-05-16T04:02:05.380Z,978.48
2019-05-16T04:03:04.745Z,978.56
2019-05-16T04:04:05.023Z,978.48
2019-05-16T04:05:05.246Z,978.45
2019-05-16T04:06:05.424Z,978.51
2019-05-16T04:07:04.530Z,978.35
2019-05-16T04:08:19.172Z,978.29
2019-05-16T04:09:04.711Z,978.59
2019-05-16T04:10:04.929Z,978.45
2019-05-16T04:11:05.320Z,978.45
2019-05-16T04:12:04.860Z,978.48
2019-05-16T04:13:04.643Z,978.43
2019-05-16T04:14:04.713Z,978.45
2019-05-16T04:15:04.628Z,978.48
2019-05-16T04:16:05.418Z,978.51
2019-05-16T04:17:04.663Z,978.43
2019-05-16T04:18:04.873Z,978.59
2019-05-16T04:19:05.249Z,978.43
2019-05-16T04:20:12.277Z,978.45
2019-05-16T04:21:04.852Z,978.45
2019-05-16T04:22:05.226Z,978.45
2019-05-16T04:23:04.632Z,978.48
2019-05-16T04:24:04.815Z,978.48
2019-05-16T04:25:05.299Z,978.40
2019-05-16T04:26:05.299Z,978.38
2019-05-16T04:27:05.120Z,978.38
2019-05-16T04:28:05.369Z,978.38
2019-05-16T04:29:05.439Z,978.41
2019-05-16T04:30:04.838Z,978.35
2019-05-16T04:31:04.974Z,978.35
2019-05-16T04:32:05.102Z,978.41
2019-05-16T04:33:07.457Z,978.38
2019-05-16T04:34:05.015Z,978.35
2019-05-16T04:35:05.389Z,978.38
2019-05-16T04:36:05.385Z,978.38
2019-05-16T04:37:05.129Z,978.41
2019-05-16T04:38:04.995Z,978.41
2019-05-16T04:39:04.966Z,978.26
2019-05-16T04:40:05.032Z,978.38
2019-05-16T04:41:04.740Z,978.24
2019-05-16T04:42:04.797Z,978.35
2019-05-16T04:43:04.970Z,978.26
2019-05-16T04:44:12.155Z,978.32
2019-05-16T04:45:04.592Z,978.21
2019-05-16T04:46:04.606Z,978.27
2019-05-16T04:47:05.146Z,978.24
2019-05-16T04:48:04.824Z,978.10
2019-05-16T04:49:05.121Z,978.07
2019-05-16T04:50:05.100Z,978.21
2019-05-16T04:51:05.070Z,978.15
2019-05-16T04:52:05.248Z,978.12
2019-05-16T04:53:05.241Z,978.26
2019-05-16T04:54:11.048Z,977.98
2019-05-16T04:55:05.261Z,978.06
2019-05-16T04:56:05.329Z,978.06
2019-05-16T04:57:05.504Z,978.01
2019-05-16T04:58:04.546Z,978.12
2019-05-16T04:59:04.856Z,978.04
2019-05-16T05:00:05.281Z,978.04
2019-05-16T05:01:05.289Z,978.04
2019-05-16T05:02:05.195Z,977.95
2019-05-16T05:03:04.737Z,978.18
2019-05-16T05:04:15.313Z,978.09
2019-05-16T05:05:04.519Z,978.01
2019-05-16T05:06:05.017Z,978.06
2019-05-16T05:07:04.976Z,978.00
2019-05-16T05:08:05.254Z,978.03
2019-05-16T05:09:05.524Z,978.23
2019-05-16T05:10:05.584Z,977.98
2019-05-16T05:11:04.579Z,978.06
2019-05-16T05:12:05.431Z,978.17
2019-05-16T05:13:04.781Z,978.00
2019-05-16T05:14:05.423Z,978.00
2019-05-16T05:15:04.498Z,978.06
2019-05-16T05:16:04.881Z,978.00
2019-05-16T05:17:06.045Z,977.97
2019-05-16T05:18:04.649Z,978.06
2019-05-16T05:19:04.951Z,977.97
2019-05-16T05:20:05.035Z,978.00
2019-05-16T05:21:06.413Z,977.97
2019-05-16T05:22:05.000Z,977.97
2019-05-16T05:23:04.466Z,978.03
2019-05-16T05:24:04.830Z,977.97
2019-05-16T05:25:05.036Z,977.88
2019-05-16T05:26:05.035Z,977.86
2019-05-16T05:27:05.291Z,977.86
2019-05-16T05:28:04.467Z,977.71
2019-05-16T05:29:05.217Z,977.77
2019-05-16T05:30:05.495Z,977.83
2019-05-16T05:31:04.675Z,977.80
2019-05-16T05:32:05.920Z,977.74
2019-05-16T05:33:04.525Z,977.85
2019-05-16T05:34:05.524Z,977.83
2019-05-16T05:35:05.253Z,977.88
2019-05-16T05:36:05.601Z,977.80
2019-05-16T05:37:04.979Z,977.66
2019-05-16T05:38:05.217Z,977.91
2019-05-16T05:39:15.292Z,977.66
2019-05-16T05:40:05.264Z,977.88
2019-05-16T05:41:04.467Z,977.74
2019-05-16T05:42:04.571Z,977.82
2019-05-16T05:43:04.837Z,977.74
2019-05-16T05:44:11.114Z,977.74
2019-05-16T05:45:04.609Z,977.74
2019-05-16T05:46:05.059Z,977.80
2019-05-16T05:47:04.715Z,977.80
2019-05-16T05:48:04.689Z,977.71
2019-05-16T05:49:05.256Z,977.74
2019-05-16T05:50:05.266Z,977.88
2019-05-16T05:51:04.576Z,977.74
2019-05-16T05:52:04.831Z,977.71
2019-05-16T05:53:04.804Z,977.88
2019-05-16T05:54:05.303Z,977.74
2019-05-16T05:55:05.353Z,977.74
2019-05-16T05:56:05.402Z,977.82
2019-05-16T05:57:04.866Z,977.77
2019-05-16T05:58:05.434Z,977.71
2019-05-16T05:59:04.972Z,977.74
2019-05-16T06:00:04.934Z,977.79
2019-05-16T06:01:05.489Z,977.77
2019-05-16T06:02:04.640Z,977.65
2019-05-16T06:03:05.322Z,977.61
2019-05-16T06:04:05.243Z,977.85
2019-05-16T06:05:05.371Z,977.74
2019-05-16T06:06:04.955Z,977.71
2019-05-16T06:07:05.266Z,977.74
2019-05-16T06:08:05.450Z,977.71
2019-05-16T06:09:04.477Z,977.82
2019-05-16T06:10:04.717Z,977.82
2019-05-16T06:11:05.189Z,977.88
2019-05-16T06:12:10.435Z,977.71
2019-05-16T06:13:05.102Z,977.65
2019-05-16T06:14:04.861Z,977.55
2019-05-16T06:15:12.572Z,977.77
2019-05-16T06:16:04.685Z,977.71
2019-05-16T06:17:04.737Z,977.74
2019-05-16T06:18:05.140Z,977.71
2019-05-16T06:19:05.275Z,977.77
2019-05-16T06:20:04.895Z,977.91
2019-05-16T06:21:05.050Z,977.82
2019-05-16T06:22:05.564Z,977.74
2019-05-16T06:23:04.831Z,977.68
2019-05-16T06:24:04.571Z,977.74
2019-05-16T06:25:05.377Z,977.82
2019-05-16T06:26:05.936Z,977.68
2019-05-16T06:27:04.873Z,977.88
2019-05-16T06:28:05.191Z,977.66
2019-05-16T06:29:05.428Z,977.71
2019-05-16T06:30:05.098Z,977.74
2019-05-16T06:31:04.760Z,977.74
2019-05-16T06:32:05.148Z,977.77
2019-05-16T06:33:05.035Z,977.71
2019-05-16T06:34:14.342Z,977.69
2019-05-16T06:35:05.227Z,977.58
2019-05-16T06:36:05.353Z,977.69
2019-05-16T06:37:04.701Z,977.75
2019-05-16T06:38:04.819Z,977.78
2019-05-16T06:39:04.930Z,977.72
2019-05-16T06:40:04.534Z,977.80
2019-05-16T06:41:05.149Z,977.78
2019-05-16T06:42:10.236Z,977.72
2019-05-16T06:43:04.913Z,977.56
2019-05-16T06:44:11.130Z,977.78
2019-05-16T06:45:04.469Z,977.70
2019-05-16T06:46:05.191Z,977.67
2019-05-16T06:47:19.556Z,977.70
2019-05-16T06:48:04.484Z,977.62
2019-05-16T06:49:04.454Z,977.51
2019-05-16T06:50:04.574Z,977.67
2019-05-16T06:51:05.075Z,977.75
2019-05-16T06:52:04.798Z,977.62
2019-05-16T06:53:04.798Z,977.54
2019-05-16T06:54:05.246Z,977.72
2019-05-16T06:55:05.311Z,977.67
2019-05-16T06:56:05.449Z,977.56
2019-05-16T06:57:04.922Z,977.54
2019-05-16T06:58:04.681Z,977.67
2019-05-16T06:59:04.692Z,977.70
2019-05-16T07:00:04.773Z,977.57
2019-05-16T07:01:05.457Z,977.70
2019-05-16T07:02:05.439Z,977.62
2019-05-16T07:03:04.664Z,977.67
2019-05-16T07:04:05.512Z,977.62
2019-05-16T07:05:05.031Z,977.56
2019-05-16T07:06:05.290Z,977.59
2019-05-16T07:07:05.539Z,977.51
2019-05-16T07:08:04.548Z,977.56
2019-05-16T07:09:05.396Z,977.70
2019-05-16T07:10:05.054Z,977.62
2019-05-16T07:11:04.765Z,977.45
2019-05-16T07:12:05.308Z,977.45
2019-05-16T07:13:04.959Z,977.45
2019-05-16T07:14:04.813Z,977.51
2019-05-16T07:15:05.517Z,977.51
2019-05-16T07:16:05.465Z,977.42
2019-05-16T07:17:05.623Z,977.42
2019-05-16T07:18:04.545Z,977.45
2019-05-16T07:19:04.672Z,977.45
2019-05-16T07:20:05.082Z,977.36
2019-05-16T07:21:05.324Z,977.31
2019-05-16T07:22:05.527Z,977.39
2019-05-16T07:23:04.602Z,977.36
2019-05-16T07:24:04.580Z,977.22
2019-05-16T07:25:04.849Z,977.33
2019-05-16T07:26:04.977Z,977.36
2019-05-16T07:27:04.739Z,977.33
2019-05-16T07:28:04.805Z,977.33
2019-05-16T07:29:04.506Z,977.30
2019-05-16T07:30:05.290Z,977.30
2019-05-16T07:31:18.789Z,977.13
2019-05-16T07:32:05.462Z,977.13
2019-05-16T07:33:05.222Z,977.19
2019-05-16T07:34:05.049Z,977.10
2019-05-16T07:35:04.625Z,977.27
2019-05-16T07:36:04.730Z,977.19
2019-05-16T07:37:05.002Z,977.13
2019-05-16T07:38:04.810Z,977.15
2019-05-16T07:39:05.251Z,977.10
2019-05-16T07:40:23.499Z,977.13
2019-05-16T07:41:04.980Z,977.07
2019-05-16T07:42:05.027Z,977.15
2019-05-16T07:43:04.821Z,977.13
2019-05-16T07:44:11.274Z,977.07
2019-05-16T07:45:04.626Z,977.10
2019-05-16T07:46:06.207Z,977.16
2019-05-16T07:47:04.640Z,977.13
2019-05-16T07:48:05.087Z,977.02
2019-05-16T07:49:05.264Z,977.04
2019-05-16T07:50:05.347Z,977.07
2019-05-16T07:51:05.160Z,977.04
2019-05-16T07:52:05.454Z,976.99
2019-05-16T07:53:04.824Z,977.10
2019-05-16T07:54:05.358Z,976.93
2019-05-16T07:55:05.385Z,977.13
2019-05-16T07:56:05.399Z,977.07
2019-05-16T07:57:22.175Z,976.93
2019-05-16T07:58:05.061Z,976.93
2019-05-16T07:59:04.725Z,977.07
2019-05-16T08:00:04.953Z,977.05
2019-05-16T08:01:12.371Z,977.10
2019-05-16T08:02:04.482Z,977.05
2019-05-16T08:03:04.569Z,976.93
2019-05-16T08:04:05.176Z,976.90
2019-05-16T08:05:05.120Z,976.96
2019-05-16T08:06:05.415Z,977.05
2019-05-16T08:07:06.220Z,977.02
2019-05-16T08:08:04.900Z,976.96
2019-05-16T08:09:11.958Z,976.99
2019-05-16T08:10:05.068Z,976.99
2019-05-16T08:11:04.849Z,976.93
2019-05-16T08:12:06.373Z,977.02
2019-05-16T08:13:05.078Z,976.99
2019-05-16T08:14:05.501Z,976.90
2019-05-16T08:15:04.696Z,976.99
2019-05-16T08:16:10.666Z,976.96
2019-05-16T08:17:05.048Z,976.99
2019-05-16T08:18:05.390Z,977.02
2019-05-16T08:19:04.516Z,976.96
2019-05-16T08:20:05.372Z,976.96
2019-05-16T08:21:04.498Z,976.96
2019-05-16T08:22:05.399Z,977.08
2019-05-16T08:23:04.815Z,976.99
2019-05-16T08:24:14.490Z,976.91
2019-05-16T08:25:05.284Z,976.96
2019-05-16T08:26:05.465Z,977.08
2019-05-16T08:27:05.202Z,976.96
2019-05-16T08:28:05.401Z,977.02
2019-05-16T08:29:04.473Z,976.96
2019-05-16T08:30:04.854Z,977.05
2019-05-16T08:31:05.075Z,976.97
2019-05-16T08:32:05.333Z,976.99
2019-05-16T08:33:05.399Z,976.94
2019-05-16T08:34:04.549Z,977.02
2019-05-16T08:35:04.708Z,976.94
2019-05-16T08:37:04.694Z,977.02
2019-05-16T08:38:06.397Z,977.00
2019-05-16T08:39:04.905Z,976.94
2019-05-16T08:40:04.939Z,976.86
2019-05-16T08:41:16.281Z,976.94
2019-05-16T08:42:13.008Z,976.97
2019-05-16T08:43:04.596Z,976.88
2019-05-16T08:45:04.767Z,976.88
2019-05-16T08:46:05.195Z,976.91
2019-05-16T08:46:12.539Z,977.02
2019-05-16T08:47:06.808Z,976.91
2019-05-16T08:48:04.590Z,976.80
2019-05-16T08:49:04.931Z,976.91
2019-05-16T08:50:12.337Z,976.85
2019-05-16T08:51:05.168Z,976.74
2019-05-16T08:52:04.813Z,976.79
2019-05-16T08:53:05.146Z,976.94
2019-05-16T08:54:05.038Z,976.82
2019-05-16T08:55:05.395Z,976.74
2019-05-16T08:56:05.417Z,976.76
2019-05-16T08:57:27.937Z,976.72
2019-05-16T08:58:05.417Z,976.69
2019-05-16T08:59:04.869Z,976.76
2019-05-16T09:00:05.134Z,976.74
2019-05-16T09:01:04.851Z,976.79
2019-05-16T09:02:05.058Z,976.60
2019-05-16T09:03:05.346Z,976.79
2019-05-16T09:04:04.741Z,976.74
2019-05-16T09:05:06.599Z,976.78
2019-05-16T09:06:05.443Z,976.74
2019-05-16T09:07:05.032Z,976.78
2019-05-16T09:08:05.377Z,976.74
2019-05-16T09:09:40.305Z,976.76
2019-05-16T09:10:45.403Z,976.71
2019-05-16T09:11:34.870Z,976.78
2019-05-16T09:12:07.392Z,976.57
2019-05-16T09:13:07.522Z,976.65
2019-05-16T09:14:07.021Z,976.75
2019-05-16T09:15:07.973Z,976.75
2019-05-16T09:16:07.241Z,976.65
2019-05-16T09:17:07.818Z,976.56
2019-05-16T09:18:07.930Z,976.71
2019-05-16T09:19:04.532Z,976.68
2019-05-16T09:20:07.656Z,976.51
2019-05-16T09:21:07.709Z,976.42
2019-05-16T09:22:07.702Z,976.45
2019-05-16T09:23:07.830Z,976.65
2019-05-16T09:24:07.042Z,976.48
2019-05-16T09:25:07.568Z,976.51
2019-05-16T09:26:07.718Z,976.48
2019-05-16T09:27:13.001Z,976.56
2019-05-16T09:28:07.742Z,976.39
2019-05-16T09:29:08.846Z,976.39
2019-05-16T09:30:07.041Z,976.36
2019-05-16T09:31:07.536Z,976.42
2019-05-16T09:32:16.850Z,976.25
2019-05-16T09:33:07.489Z,976.39
2019-05-16T09:34:07.200Z,976.44
2019-05-16T09:35:08.480Z,976.42
2019-05-16T09:36:08.348Z,976.42
2019-05-16T09:37:08.158Z,976.39
2019-05-16T09:38:07.582Z,976.47
2019-05-16T09:39:08.701Z,976.61
2019-05-16T09:40:06.849Z,976.64
2019-05-16T09:41:07.128Z,976.61
2019-05-16T09:42:08.458Z,976.64
2019-05-16T09:43:07.930Z,976.53
2019-05-16T09:44:09.847Z,976.70
2019-05-16T09:45:07.813Z,976.56
2019-05-16T09:46:06.878Z,976.47
2019-05-16T09:47:04.612Z,976.59
2019-05-16T09:48:07.149Z,976.47
2019-05-16T09:49:24.090Z,976.56
2019-05-16T09:50:07.199Z,976.39
2019-05-16T09:51:07.048Z,976.47
2019-05-16T09:52:06.926Z,976.47
2019-05-16T09:53:04.572Z,976.50
2019-05-16T09:54:07.560Z,976.30
2019-05-16T09:55:07.484Z,976.44
2019-05-16T09:56:07.269Z,976.47
2019-05-16T09:57:06.954Z,976.32
2019-05-16T09:58:07.572Z,976.46
2019-05-16T09:59:09.411Z,976.35
2019-05-16T10:00:07.119Z,976.18
2019-05-16T10:01:04.934Z,976.35
2019-05-16T10:02:07.901Z,976.17
2019-05-16T10:03:07.446Z,976.28
2019-05-16T10:04:10.311Z,976.25
2019-05-16T10:05:04.719Z,976.28
2019-05-16T10:06:08.281Z,976.31
2019-05-16T10:07:07.083Z,976.36
2019-05-16T10:08:07.275Z,976.33
2019-05-16T10:09:06.808Z,976.24
2019-05-16T10:10:06.893Z,976.21
2019-05-16T10:11:06.701Z,976.30
2019-05-16T10:12:17.962Z,976.36
2019-05-16T10:13:07.190Z,976.30
2019-05-16T10:14:07.590Z,976.33
2019-05-16T10:15:07.946Z,976.27
2019-05-16T10:16:07.170Z,976.27
2019-05-16T10:17:04.825Z,976.38
2019-05-16T10:18:07.869Z,976.47
2019-05-16T10:19:06.853Z,976.29
2019-05-16T10:20:07.599Z,976.35
2019-05-16T10:21:07.267Z,976.44
2019-05-16T10:22:07.620Z,976.44
2019-05-16T10:23:17.405Z,976.27
2019-05-16T10:24:07.590Z,976.35
2019-05-16T10:25:05.486Z,976.35
2019-05-16T10:26:04.636Z,976.49
2019-05-16T10:27:06.893Z,976.46
2019-05-16T10:28:04.730Z,976.38
2019-05-16T10:29:11.151Z,976.47
2019-05-16T10:30:08.876Z,976.47
2019-05-16T10:31:07.230Z,976.30
2019-05-16T10:32:08.095Z,976.38
2019-05-16T10:33:07.294Z,976.52
2019-05-16T10:34:08.080Z,976.44
2019-05-16T10:35:04.816Z,976.33
2019-05-16T10:36:08.130Z,976.41
2019-05-16T10:37:05.396Z,976.27
2019-05-16T10:38:04.966Z,976.27
2019-05-16T10:39:07.978Z,976.27
2019-05-16T10:40:07.679Z,976.10
2019-05-16T10:41:07.575Z,976.21
2019-05-16T10:42:21.915Z,976.19
2019-05-16T10:43:07.792Z,976.24
2019-05-16T10:44:10.398Z,976.19
2019-05-16T10:45:04.800Z,976.10
2019-05-16T10:46:06.900Z,976.10
2019-05-16T10:47:07.951Z,976.04
2019-05-16T10:48:05.033Z,976.04
2019-05-16T10:49:05.077Z,975.93
2019-05-16T10:50:04.650Z,976.04
2019-05-16T10:51:04.708Z,975.98
2019-05-16T10:52:07.605Z,976.15
2019-05-16T10:53:42.672Z,976.27
2019-05-16T10:54:14.106Z,976.07
2019-05-16T10:55:08.295Z,976.12
2019-05-16T10:56:07.925Z,976.09
2019-05-16T10:57:08.435Z,976.15
2019-05-16T10:58:07.803Z,976.26
2019-05-16T11:00:01.646Z,976.12
2019-05-16T11:00:37.095Z,976.15
2019-05-16T11:01:27.280Z,976.07
2019-05-16T11:02:07.011Z,976.21
2019-05-16T11:03:07.069Z,976.18
2019-05-16T11:04:07.783Z,976.23
2019-05-16T11:05:30.233Z,976.18
2019-05-16T11:06:23.457Z,976.15
2019-05-16T11:07:10.136Z,976.09
2019-05-16T11:08:07.760Z,976.07
2019-05-16T11:09:06.862Z,976.24
2019-05-16T11:10:07.411Z,976.15
2019-05-16T11:11:07.059Z,976.15
2019-05-16T11:12:04.753Z,975.98
2019-05-16T11:13:04.948Z,976.01
2019-05-16T11:14:09.519Z,976.07
2019-05-16T11:15:11.762Z,976.07
2019-05-16T11:16:09.703Z,975.95
2019-05-16T11:17:13.746Z,975.98
2019-05-16T11:18:07.274Z,975.98
2019-05-16T11:19:23.579Z,975.84
2019-05-16T11:20:04.936Z,975.81
2019-05-16T11:21:05.558Z,975.98
2019-05-16T11:22:04.607Z,975.83
2019-05-16T11:23:08.202Z,976.06
2019-05-16T11:24:11.419Z,975.97
2019-05-16T11:25:28.529Z,975.97
2019-05-16T11:26:05.051Z,975.91
2019-05-16T11:27:07.318Z,975.88
2019-05-16T11:28:07.780Z,976.05
2019-05-16T11:29:06.915Z,975.88
2019-05-16T11:30:07.901Z,975.97
2019-05-16T11:31:07.955Z,975.85
2019-05-16T11:32:07.211Z,975.80
2019-05-16T11:33:07.852Z,975.77
2019-05-16T11:34:04.717Z,975.88
2019-05-16T11:35:06.759Z,975.77
2019-05-16T11:36:12.658Z,975.79
2019-05-16T11:37:07.189Z,975.88
2019-05-16T11:38:07.609Z,975.79
2019-05-16T11:39:08.916Z,975.96
2019-05-16T11:40:07.032Z,975.93
2019-05-16T11:41:07.212Z,975.85
2019-05-16T11:42:04.501Z,975.88
2019-05-16T11:43:18.197Z,975.96
2019-05-16T11:44:07.053Z,975.88
2019-05-16T11:45:10.328Z,975.82
2019-05-16T11:46:05.096Z,975.79
2019-05-16T11:47:07.904Z,975.85
2019-05-16T11:48:05.472Z,975.82
2019-05-16T11:49:04.530Z,975.76
2019-05-16T11:50:07.651Z,975.67
2019-05-16T11:51:07.470Z,975.73
2019-05-16T11:52:07.806Z,975.70
2019-05-16T11:53:07.682Z,975.81
2019-05-16T11:54:07.348Z,975.73
2019-05-16T11:55:07.719Z,975.76
2019-05-16T11:56:08.704Z,975.70
2019-05-16T11:57:07.350Z,975.87
2019-05-16T11:58:07.214Z,975.73
2019-05-16T11:59:07.230Z,975.70
2019-05-16T12:00:04.770Z,975.76
2019-05-16T12:01:07.861Z,975.64
2019-05-16T12:02:04.618Z,975.81
2019-05-16T12:03:05.007Z,975.84
2019-05-16T12:04:07.403Z,975.76
2019-05-16T12:05:04.792Z,975.70
2019-05-16T12:06:11.131Z,975.70
2019-05-16T12:07:04.884Z,975.65
2019-05-16T12:08:08.069Z,975.67
2019-05-16T12:09:07.100Z,975.50
2019-05-16T12:10:07.911Z,975.53
2019-05-16T12:11:07.237Z,975.67
2019-05-16T12:12:05.042Z,975.53
2019-05-16T12:13:22.716Z,975.56
2019-05-16T12:14:07.158Z,975.59
2019-05-16T12:15:09.529Z,975.42
2019-05-16T12:16:07.957Z,975.67
2019-05-16T12:17:07.693Z,975.59
2019-05-16T12:18:08.829Z,975.53
2019-05-16T12:19:07.202Z,975.64
2019-05-16T12:20:08.085Z,975.56
2019-05-16T12:21:07.940Z,975.55
2019-05-16T12:22:07.471Z,975.41
2019-05-16T12:23:08.251Z,975.64
2019-05-16T12:24:07.717Z,975.55
2019-05-16T12:25:08.633Z,975.52
2019-05-16T12:26:08.092Z,975.49
2019-05-16T12:27:07.919Z,975.57
2019-05-16T12:28:08.411Z,975.60
2019-05-16T12:29:07.302Z,975.66